Terminal Aerodrome Forecast
Issued by NWS Duluth, MN

Home | Current Version | Previous Version | Text Only | Print | Product List | Glossary On
Versions: 1 2 3 4 5 6 7 8 9 10 11 12 13 14 15 16 17 18
000
FTUS43 KDLH 281700
TAFDLH
TAF
KDLH 281740Z 2818/0118 20014KT P6SM SCT200
     FM010300 20012KT P6SM SCT035 BKN060
     FM010600 22010KT P6SM -SN SCT018 BKN030
     FM011200 25008KT P6SM SCT030
     FM011600 27012KT P6SM SCT040=

USA.gov is the U.S. government's official web portal to all federal, state and local government web resources and services.